Time;durP1;ratioP1;P1;durP2;ratioP2;P2;SDS_P1;SDS_P2;PMS_P1;PMS_P2;Temp;Humidity;BMP_temperature;BMP_pressure;BME280_temperature;BME280_humidity;BME280_pressure;Samples;Min_cycle;Max_cycle;Signal;HPM_P1;HPM_P2
2022/09/11 00:01:04;;;;;;;9.38;1.90;;;;;;;18.53;32.43;100209.95;1744187;82;21168;-86
2022/09/11 00:04:09;;;;;;;4.05;1.95;;;;;;;18.48;32.55;100200.11;1743895;82;21837;-86
2022/09/11 00:07:13;;;;;;;3.10;1.98;;;;;;;18.33;32.84;100194.96;1742665;82;21764;-86
2022/09/11 00:10:19;;;;;;;4.55;1.80;;;;;;;18.41;32.87;100200.75;1774235;81;21223;-85
2022/09/11 00:13:27;;;;;;;3.17;1.70;;;;;;;18.33;33.06;100193.58;1775166;81;21155;-87
2022/09/11 00:16:41;;;;;;;4.42;1.77;;;;;;;18.35;33.03;100187.83;1775205;81;21164;-87
2022/09/11 00:19:47;;;;;;;13.30;2.08;;;;;;;18.36;33.12;100182.05;1774310;81;21231;-87
2022/09/11 00:22:57;;;;;;;6.17;1.60;;;;;;;18.35;33.23;100179.52;1775772;80;21141;-83
2022/09/11 00:26:05;;;;;;;5.97;1.77;;;;;;;18.33;33.35;100171.42;1783893;80;21208;-85
2022/09/11 00:29:11;;;;;;;3.92;1.57;;;;;;;18.43;33.38;100170.88;1769339;79;21188;-86
2022/09/11 00:32:16;;;;;;;8.33;1.42;;;;;;;18.46;33.33;100165.44;1784012;80;21165;-85
2022/09/11 00:35:22;;;;;;;7.92;1.62;;;;;;;18.49;33.26;100166.34;1782408;79;21516;-84
2022/09/11 00:38:27;;;;;;;1.82;1.10;;;;;;;18.51;33.40;100164.20;1768171;80;21180;-85
2022/09/11 00:41:44;;;;;;;7.25;1.50;;;;;;;18.36;33.71;100146.59;1746322;82;21164;-86
2022/09/11 00:44:55;;;;;;;7.42;1.45;;;;;;;18.36;33.73;100147.44;1745716;82;21203;-86
2022/09/11 00:48:04;;;;;;;4.67;1.40;;;;;;;18.30;34.01;100166.88;1745743;82;21761;-86
2022/09/11 00:51:10;;;;;;;11.88;1.30;;;;;;;18.34;34.12;100165.34;1746645;82;21290;-86
2022/09/11 00:54:16;;;;;;;5.70;1.60;;;;;;;18.27;34.19;100165.98;1761879;80;21210;-86
2022/09/11 00:57:20;;;;;;;4.08;1.40;;;;;;;18.25;34.22;100168.11;1768456;81;21194;-86
2022/09/11 01:00:26;;;;;;;4.00;1.20;;;;;;;18.24;34.33;100169.20;1768427;81;21205;-86
2022/09/11 01:03:32;;;;;;;12.33;1.70;;;;;;;18.18;34.56;100174.27;1768153;81;21214;-86
2022/09/11 01:06:37;;;;;;;12.05;1.87;;;;;;;18.04;34.87;100161.95;1767732;81;21249;-86
2022/09/11 01:09:42;;;;;;;6.47;1.65;;;;;;;18.02;35.05;100161.86;1767803;81;21229;-84
2022/09/11 01:13:14;;;;;;;3.70;1.50;;;;;;;18.07;35.05;100164.28;1768205;81;21499;-85
2022/09/11 01:16:52;;;;;;;10.70;1.65;;;;;;;17.95;35.27;100168.86;1768036;81;21214;-85
2022/09/11 01:20:32;;;;;;;5.15;1.20;;;;;;;17.94;35.45;100161.64;1764513;81;21716;-86
2022/09/11 01:24:08;;;;;;;5.65;1.35;;;;;;;17.80;35.66;100156.77;1768332;81;21210;-87
2022/09/11 01:27:38;;;;;;;3.70;1.65;;;;;;;17.86;35.79;100142.02;1765336;81;21174;-85
2022/09/11 01:30:41;;;;;;;4.00;1.30;;;;;;;17.76;36.19;100147.23;1763910;81;21491;-85
2022/09/11 01:33:53;;;;;;;3.90;1.20;;;;;;;17.90;36.04;100134.11;1765481;81;21182;-86
2022/09/11 01:37:06;;;;;;;4.03;1.50;;;;;;;17.79;36.30;100130.73;1765158;81;21201;-85
2022/09/11 01:40:23;;;;;;;3.10;1.20;;;;;;;17.78;36.44;100122.09;1777019;80;21535;-86
2022/09/11 01:43:35;;;;;;;2.50;1.20;;;;;;;17.88;36.36;100120.52;1764693;80;21228;-85
2022/09/11 01:46:48;;;;;;;4.15;1.27;;;;;;;17.91;36.35;100113.66;1776779;80;21188;-85
2022/09/11 01:50:02;;;;;;;4.28;1.17;;;;;;;17.73;36.66;100112.22;1778119;80;21181;-86
2022/09/11 01:53:11;;;;;;;2.92;1.30;;;;;;;17.58;37.07;100112.03;1777585;80;21185;-85
2022/09/11 01:56:21;;;;;;;1.75;1.20;;;;;;;17.53;37.23;100103.58;1751199;80;21176;-85
2022/09/11 01:59:30;;;;;;;9.75;1.20;;;;;;;17.57;37.18;100096.53;1715471;82;21191;-85
2022/09/11 02:02:49;;;;;;;1.75;1.20;;;;;;;17.48;37.31;100079.91;1741605;82;21796;-83
2022/09/11 02:06:09;;;;;;;2.27;1.30;;;;;;;17.49;37.42;100079.38;1741673;82;21741;-86
2022/09/11 02:09:21;;;;;;;8.03;1.32;;;;;;;17.36;37.70;100082.59;1740580;82;21560;-85
2022/09/11 02:12:26;;;;;;;3.37;1.20;;;;;;;17.44;37.82;100091.11;1778188;80;21412;-85
2022/09/11 02:15:35;;;;;;;4.83;1.20;;;;;;;17.30;38.10;100084.01;1778385;80;21176;-85
2022/09/11 02:19:08;;;;;;;3.42;1.55;;;;;;;17.27;38.23;100077.03;1778131;80;21204;-85
2022/09/11 02:22:13;;;;;;;4.50;1.40;;;;;;;17.23;38.43;100090.98;1777994;80;21153;-85
2022/09/11 02:25:18;;;;;;;6.15;1.30;;;;;;;17.24;38.51;100084.92;1778220;80;21171;-85
2022/09/11 02:28:27;;;;;;;4.03;1.40;;;;;;;17.18;38.73;100097.73;1783741;80;21161;-85
2022/09/11 02:31:33;;;;;;;5.17;1.40;;;;;;;17.23;38.77;100096.52;1783923;80;21160;-85
2022/09/11 02:34:41;;;;;;;2.52;1.50;;;;;;;17.19;38.91;100084.75;1783282;80;21212;-85
2022/09/11 02:38:18;;;;;;;3.85;1.12;;;;;;;17.22;38.97;100087.92;1783417;80;21180;-85
2022/09/11 02:41:28;;;;;;;2.90;1.20;;;;;;;16.96;39.39;100075.14;1783342;80;21178;-85
2022/09/11 02:44:59;;;;;;;10.72;1.40;;;;;;;17.06;39.38;100067.19;1782285;80;21805;-85
2022/09/11 02:48:27;;;;;;;4.85;1.40;;;;;;;17.12;39.47;100069.59;1783478;80;21164;-85
2022/09/11 02:51:38;;;;;;;7.75;1.57;;;;;;;17.12;39.65;100061.30;1783707;80;21161;-84
2022/09/11 02:54:55;;;;;;;16.82;1.67;;;;;;;17.19;39.58;100052.43;1775920;80;21173;-85
2022/09/11 02:57:52;;;;;;;5.75;1.32;;;;;;;17.26;39.48;100050.98;1768512;81;22025;-86
2022/09/11 03:00:59;;;;;;;2.33;1.10;;;;;;;17.31;39.47;100044.23;1768308;79;21179;-85
2022/09/11 03:04:04;;;;;;;2.92;1.25;;;;;;;17.29;39.52;100038.09;1768592;81;21206;-85
2022/09/11 03:07:10;;;;;;;7.95;1.65;;;;;;;17.36;39.36;100041.63;1768060;81;21154;-86
2022/09/11 03:10:17;;;;;;;7.58;1.70;;;;;;;17.45;39.21;100038.88;1770558;80;21196;-85
2022/09/11 03:13:23;;;;;;;4.97;1.40;;;;;;;17.31;39.42;100049.25;1783594;80;21228;-85
2022/09/11 03:16:29;;;;;;;6.25;1.27;;;;;;;17.35;39.34;100046.86;1783612;80;21170;-85
2022/09/11 03:19:35;;;;;;;6.85;1.35;;;;;;;17.32;39.52;100046.79;1783067;80;21765;-85
2022/09/11 03:22:40;;;;;;;4.03;0.98;;;;;;;17.26;39.47;100057.89;1783814;80;21149;-85
2022/09/11 03:25:46;;;;;;;8.03;1.22;;;;;;;17.33;39.30;100060.08;1784151;80;21208;-86
2022/09/11 03:28:53;;;;;;;3.80;1.47;;;;;;;17.35;39.23;100052.39;1744608;82;21230;-85
2022/09/11 03:31:58;;;;;;;6.55;1.30;;;;;;;17.40;39.08;100049.78;1744720;82;21760;-86
2022/09/11 03:35:04;;;;;;;4.42;1.40;;;;;;;17.41;39.08;100044.59;1743218;82;21183;-84
2022/09/11 03:38:10;;;;;;;7.12;1.37;;;;;;;17.45;39.03;100043.03;1744459;82;21227;-85
2022/09/11 03:41:17;;;;;;;6.17;1.32;;;;;;;17.36;38.98;100032.83;1744328;82;21168;-85
2022/09/11 03:44:23;;;;;;;5.92;1.20;;;;;;;17.16;39.33;100032.69;1744479;82;21200;-85
2022/09/11 03:47:29;;;;;;;3.17;1.22;;;;;;;17.11;39.46;100023.69;1745067;82;21160;-85
2022/09/11 03:50:35;;;;;;;2.37;1.47;;;;;;;17.16;39.25;100024.39;1743142;82;21223;-85
2022/09/11 03:53:41;;;;;;;3.27;1.50;;;;;;;17.36;38.85;100018.12;1744888;82;21224;-85
2022/09/11 03:56:47;;;;;;;4.85;1.30;;;;;;;17.38;38.74;100015.47;1741907;82;21764;-85
2022/09/11 03:59:55;;;;;;;3.50;1.17;;;;;;;17.45;38.55;100003.48;1734949;82;21263;-86
2022/09/11 04:03:15;;;;;;;12.03;1.77;;;;;;;17.34;38.68;100006.47;1712482;82;21170;-84
2022/09/11 04:06:21;;;;;;;3.20;1.40;;;;;;;17.31;38.62;99993.09;1717780;83;21584;-85
2022/09/11 04:09:27;;;;;;;10.00;2.10;;;;;;;17.48;38.26;100003.88;1717568;83;21202;-85
2022/09/11 04:12:33;;;;;;;4.25;1.57;;;;;;;17.49;38.21;99993.12;1699296;83;21163;-83
2022/09/11 04:15:41;;;;;;;3.20;1.67;;;;;;;17.33;38.51;99989.58;1717393;83;21819;-85
2022/09/11 04:18:48;;;;;;;2.83;1.30;;;;;;;17.23;38.39;100008.61;1718982;82;22124;-85
2022/09/11 04:21:54;;;;;;;3.90;1.35;;;;;;;17.33;38.13;100003.41;1719779;83;21503;-85
2022/09/11 04:25:02;;;;;;;3.20;1.45;;;;;;;17.36;37.93;100004.31;1719392;83;21176;-85
2022/09/11 04:28:09;;;;;;;6.17;1.70;;;;;;;17.49;37.70;100001.41;1731063;81;21184;-85
2022/09/11 04:31:15;;;;;;;8.13;2.00;;;;;;;17.33;37.82;100000.10;1743533;82;21172;-85
2022/09/11 04:34:21;;;;;;;7.03;2.00;;;;;;;17.18;37.79;100000.16;1765219;81;21197;-84
2022/09/11 04:37:27;;;;;;;8.60;2.20;;;;;;;17.22;37.95;100001.37;1769740;81;21166;-86
2022/09/11 04:40:33;;;;;;;3.30;2.02;;;;;;;17.06;37.93;99996.73;1768678;81;21766;-85
2022/09/11 04:43:38;;;;;;;9.23;1.72;;;;;;;17.14;37.88;99992.01;1769817;81;21157;-85
2022/09/11 04:46:44;;;;;;;6.12;1.90;;;;;;;17.36;37.59;100012.09;1769857;81;21193;-85
2022/09/11 04:49:51;;;;;;;5.83;1.80;;;;;;;17.47;37.38;100013.80;1768696;81;21734;-85
2022/09/11 04:52:57;;;;;;;4.58;1.67;;;;;;;17.45;37.51;100014.54;1769872;81;21753;-84
2022/09/11 04:56:15;;;;;;;5.03;1.40;;;;;;;17.46;37.58;100016.25;1769203;81;21198;-85
2022/09/11 04:59:24;;;;;;;3.87;1.70;;;;;;;17.46;37.77;100035.07;1769958;81;21249;-85
2022/09/11 05:02:31;;;;;;;8.70;1.80;;;;;;;17.53;37.85;100028.08;1770042;81;21767;-84
2022/09/11 05:05:37;;;;;;;6.87;1.30;;;;;;;17.52;37.90;100017.55;1768610;81;21291;-85
2022/09/11 05:08:43;;;;;;;1.72;1.27;;;;;;;17.56;37.92;100017.41;1769967;81;21241;-84
2022/09/11 05:11:50;;;;;;;9.00;1.32;;;;;;;17.54;37.91;100012.63;1768961;81;21201;-86
2022/09/11 05:14:56;;;;;;;7.90;1.47;;;;;;;17.42;38.20;100019.16;1769173;81;21197;-86
2022/09/11 05:18:03;;;;;;;3.95;1.52;;;;;;;17.60;38.15;100015.88;1768281;81;21189;-85
2022/09/11 05:21:11;;;;;;;3.58;1.50;;;;;;;17.61;38.02;100012.03;1769851;81;21185;-85
2022/09/11 05:24:19;;;;;;;4.72;1.47;;;;;;;17.60;38.15;100010.89;1757130;81;21810;-85
2022/09/11 05:27:25;;;;;;;5.25;1.60;;;;;;;17.64;37.97;99996.88;1755209;81;21200;-85
2022/09/11 05:30:30;;;;;;;11.18;1.50;;;;;;;17.66;37.96;99989.77;1754192;81;22071;-85
2022/09/11 05:33:37;;;;;;;3.67;1.40;;;;;;;17.61;37.96;99989.07;1754631;81;21135;-86
2022/09/11 05:36:44;;;;;;;5.00;1.42;;;;;;;17.58;38.08;99982.06;1754741;81;21141;-85
2022/09/11 05:39:51;;;;;;;6.58;1.72;;;;;;;17.61;38.29;99981.61;1768346;81;21185;-84
2022/09/11 05:43:07;;;;;;;4.75;1.30;;;;;;;17.68;38.31;99988.98;1860125;76;27976;-81
2022/09/11 05:46:15;;;;;;;4.47;1.30;;;;;;;17.71;38.17;99985.77;1846927;77;21173;-82
2022/09/11 05:49:22;;;;;;;2.35;1.30;;;;;;;17.76;38.40;99976.27;1779811;80;21243;-81
2022/09/11 05:52:29;;;;;;;4.28;1.98;;;;;;;17.76;38.60;99971.58;1747969;82;21204;-82
2022/09/11 05:55:35;;;;;;;5.47;1.50;;;;;;;17.95;38.46;99967.41;1719001;83;21180;-82
2022/09/11 05:58:41;;;;;;;9.65;1.82;;;;;;;17.99;38.23;99970.02;1748898;82;21233;-82
2022/09/11 06:01:49;;;;;;;9.08;1.75;;;;;;;17.85;38.43;99965.20;1747910;82;21213;-82
2022/09/11 06:04:56;;;;;;;6.87;2.47;;;;;;;17.97;38.34;99955.55;1742628;81;21213;-82
2022/09/11 06:08:03;;;;;;;4.50;1.20;;;;;;;17.96;37.98;99945.03;1748527;82;21808;-82
2022/09/11 06:11:09;;;;;;;6.97;1.75;;;;;;;18.04;38.19;99937.80;1782455;80;21125;-82
2022/09/11 06:14:15;;;;;;;4.28;1.52;;;;;;;18.00;37.95;99931.03;1752290;82;21236;-81
2022/09/11 06:17:20;;;;;;;4.50;1.65;;;;;;;18.03;38.28;99938.04;1782551;80;21244;-82
2022/09/11 06:20:26;;;;;;;9.70;1.70;;;;;;;18.01;38.32;99934.09;1763656;80;21178;-82
2022/09/11 06:23:33;;;;;;;5.05;2.05;;;;;;;18.05;38.37;99923.41;1727309;81;21244;-82
2022/09/11 06:26:40;;;;;;;5.35;1.92;;;;;;;18.13;38.23;99916.17;1722571;83;21281;-82
2022/09/11 06:29:47;;;;;;;6.12;1.60;;;;;;;18.14;38.13;99924.23;1683673;83;21251;-82
2022/09/11 06:32:56;;;;;;;4.03;1.70;;;;;;;18.19;38.41;99923.53;1721840;83;21225;-82
2022/09/11 06:36:09;;;;;;;4.05;1.57;;;;;;;18.26;38.41;99920.13;1722638;83;21194;-82
2022/09/11 06:39:16;;;;;;;2.60;1.32;;;;;;;18.21;38.32;99924.66;1722682;83;21204;-81
2022/09/11 06:42:23;;;;;;;4.53;1.95;;;;;;;18.28;38.30;99919.89;1713088;83;21238;-82
2022/09/11 06:45:32;;;;;;;3.70;1.72;;;;;;;18.34;38.49;99928.08;1692494;84;21926;-82
2022/09/11 06:48:38;;;;;;;4.78;1.80;;;;;;;18.42;38.21;99928.84;1703290;84;21252;-82
2022/09/11 06:51:45;;;;;;;2.83;1.65;;;;;;;18.38;38.46;99936.22;1703584;83;21225;-82
2022/09/11 06:54:52;;;;;;;6.53;1.67;;;;;;;18.49;38.06;99923.51;1724717;83;21309;-82
2022/09/11 06:58:01;;;;;;;8.80;1.60;;;;;;;18.52;38.42;99924.95;1724569;83;21243;-82
2022/09/11 07:01:00;;;;;;;4.00;1.45;;;;;;;18.49;38.57;99917.97;1725188;83;21185;-82
2022/09/11 07:04:06;;;;;;;10.55;1.40;;;;;;;18.55;38.73;99921.71;1725230;83;21333;-82
2022/09/11 07:07:12;;;;;;;8.68;1.82;;;;;;;18.56;38.37;99926.16;1725454;83;21201;-82
2022/09/11 07:10:17;;;;;;;3.87;1.45;;;;;;;18.60;38.37;99928.77;1732050;83;21203;-82
2022/09/11 07:13:25;;;;;;;9.75;1.92;;;;;;;18.69;38.19;99916.28;1730608;82;21185;-81
2022/09/11 07:16:33;;;;;;;7.67;1.40;;;;;;;18.67;38.08;99916.17;1731394;83;21241;-81
2022/09/11 07:19:39;;;;;;;4.75;1.42;;;;;;;18.67;38.51;99917.56;1731807;83;21233;-82
2022/09/11 07:22:46;;;;;;;3.45;1.60;;;;;;;18.71;38.60;99925.73;1717816;83;21228;-82
2022/09/11 07:25:53;;;;;;;4.30;1.92;;;;;;;18.75;38.36;99920.02;1710942;84;21188;-82
2022/09/11 07:28:59;;;;;;;4.35;1.87;;;;;;;18.85;38.28;99918.88;1694323;84;21849;-81
2022/09/11 07:32:05;;;;;;;7.40;1.82;;;;;;;18.83;38.04;99918.29;1710693;84;21156;-81
2022/09/11 07:35:20;;;;;;;7.85;2.05;;;;;;;18.89;38.16;99916.77;1695070;84;21187;-82
2022/09/11 07:38:23;;;;;;;10.08;1.72;;;;;;;18.96;38.20;99915.80;1731341;82;21204;-82
2022/09/11 07:41:31;;;;;;;9.58;1.82;;;;;;;19.01;38.17;99920.95;1707317;84;21197;-82
2022/09/11 07:44:38;;;;;;;5.20;1.52;;;;;;;18.90;38.00;99934.23;1708658;82;21515;-82
2022/09/11 07:47:46;;;;;;;5.87;2.02;;;;;;;19.13;37.83;99940.33;1701415;84;21503;-82
2022/09/11 07:51:06;;;;;;;11.73;2.27;;;;;;;19.41;37.66;99934.05;1705279;84;21229;-82
2022/09/11 07:54:13;;;;;;;14.80;2.50;;;;;;;19.48;37.50;99927.84;1732991;82;21229;-81
2022/09/11 07:57:20;;;;;;;4.70;2.40;;;;;;;19.45;37.62;99931.09;1709613;82;21499;-81
2022/09/11 08:00:28;;;;;;;12.73;2.15;;;;;;;19.33;38.18;99915.00;1705740;84;21197;-82
2022/09/11 08:03:36;;;;;;;7.00;2.20;;;;;;;19.37;38.38;99918.42;1706297;84;21217;-82
2022/09/11 08:06:37;;;;;;;8.83;2.12;;;;;;;19.32;38.41;99916.09;1719084;81;21252;-82
2022/09/11 08:09:33;;;;;;;4.92;1.77;;;;;;;19.33;38.12;99917.77;1714435;83;21321;-82
2022/09/11 08:12:40;;;;;;;10.72;2.10;;;;;;;19.41;38.40;99918.24;1714327;83;21205;-82
2022/09/11 08:15:53;;;;;;;15.90;2.90;;;;;;;19.47;38.31;99919.19;1714589;83;21181;-82
2022/09/11 08:19:03;;;;;;;8.10;2.00;;;;;;;19.57;38.12;99918.56;1738345;81;21234;-81
2022/09/11 08:22:11;;;;;;;9.13;2.30;;;;;;;19.65;38.16;99914.06;1695138;84;21199;-82
2022/09/11 08:25:18;;;;;;;4.25;2.08;;;;;;;19.63;38.58;99908.77;1695657;84;21358;-82
2022/09/11 08:28:35;;;;;;;5.67;2.30;;;;;;;19.71;38.35;99899.75;1736170;82;21644;-82
2022/09/11 08:31:42;;;;;;;8.28;2.33;;;;;;;19.73;38.78;99887.88;1735450;82;21291;-82
2022/09/11 08:34:49;;;;;;;10.50;2.72;;;;;;;19.74;38.67;99878.45;1736071;82;21196;-82
2022/09/11 08:37:54;;;;;;;6.83;2.30;;;;;;;19.86;38.61;99870.94;1736820;82;21188;-82
2022/09/11 08:41:00;;;;;;;12.05;2.52;;;;;;;19.90;38.42;99859.61;1736921;82;21193;-82
2022/09/11 08:44:18;;;;;;;14.80;2.72;;;;;;;19.82;38.50;99857.26;1708434;84;21235;-81
2022/09/11 08:47:30;;;;;;;6.97;3.17;;;;;;;19.77;39.06;99859.94;1708666;84;21294;-82
2022/09/11 08:50:42;;;;;;;13.68;4.42;;;;;;;19.82;39.32;99860.88;1706028;84;21247;-82
2022/09/11 08:53:48;;;;;;;11.60;3.62;;;;;;;19.75;40.25;99864.87;1700659;84;21203;-82
2022/09/11 08:56:56;;;;;;;10.38;2.30;;;;;;;19.82;41.06;99860.03;1704852;83;21194;-82
2022/09/11 09:00:28;;;;;;;17.37;3.27;;;;;;;19.76;41.20;99854.06;1720365;83;21222;-82
2022/09/11 09:03:57;;;;;;;6.17;2.30;;;;;;;19.72;40.63;99850.13;1719480;83;21222;-82
2022/09/11 09:07:30;;;;;;;10.72;2.83;;;;;;;19.71;40.99;99856.74;1720198;83;21175;-82
2022/09/11 09:10:54;;;;;;;36.50;3.05;;;;;;;19.62;41.44;99836.35;1720326;83;21186;-82
2022/09/11 09:14:36;;;;;;;16.67;2.80;;;;;;;19.55;41.99;99833.37;1728678;83;21514;-82
2022/09/11 09:17:46;;;;;;;21.48;3.42;;;;;;;19.51;43.53;99846.89;1729600;82;21243;-82
2022/09/11 09:20:56;;;;;;;14.33;2.20;;;;;;;19.47;43.40;99835.15;1737125;82;21188;-82
2022/09/11 09:24:06;;;;;;;18.07;2.40;;;;;;;19.49;43.87;99827.44;1737048;82;21608;-82
2022/09/11 09:27:05;;;;;;;9.70;2.10;;;;;;;19.53;44.73;99810.06;1737028;82;21206;-80
2022/09/11 09:30:15;;;;;;;7.75;2.40;;;;;;;19.59;45.46;99795.19;1737222;82;21198;-81
2022/09/11 09:33:41;;;;;;;5.60;2.58;;;;;;;19.78;44.77;99785.31;1736869;82;21234;-81
2022/09/11 09:37:06;;;;;;;7.00;2.65;;;;;;;19.90;45.32;99796.65;1737312;82;21737;-81
2022/09/11 09:40:16;;;;;;;11.20;2.40;;;;;;;19.84;45.00;99787.91;1736925;82;21476;-81
2022/09/11 09:43:30;;;;;;;;;;;;;;;20.11;45.94;99810.33;1739917;82;21265;-81
2022/09/11 09:46:49;;;;;;;6.92;2.70;;;;;;;20.23;45.65;99786.67;1735671;82;20252;-82
2022/09/11 09:49:55;;;;;;;7.85;2.87;;;;;;;20.48;45.01;99774.31;1735770;82;21232;-82
2022/09/11 09:53:02;;;;;;;8.38;2.92;;;;;;;20.55;44.50;99769.41;1737819;82;21725;-82
2022/09/11 09:56:07;;;;;;;9.65;4.08;;;;;;;20.68;44.98;99769.89;1736201;82;21806;-82
2022/09/11 09:59:22;;;;;;;14.53;3.60;;;;;;;20.74;43.57;99759.67;1735898;82;21328;-82
2022/09/11 10:02:56;;;;;;;12.88;3.72;;;;;;;20.94;43.12;99761.92;1737570;82;21163;-83
2022/09/11 10:06:02;;;;;;;7.90;2.95;;;;;;;20.88;42.51;99763.77;1735942;82;21270;-82
2022/09/11 10:09:08;;;;;;;10.58;3.05;;;;;;;20.86;42.68;99764.59;1737140;82;22386;-82
2022/09/11 10:12:13;;;;;;;7.60;2.62;;;;;;;21.01;42.97;99761.72;1737016;82;21179;-81
2022/09/11 10:15:26;;;;;;;7.80;2.37;;;;;;;20.96;42.94;99765.82;1717729;82;21632;-82
2022/09/11 10:18:45;;;;;;;5.10;2.27;;;;;;;20.86;43.24;99758.19;1735961;82;21209;-82
2022/09/11 10:21:43;;;;;;;13.75;2.72;;;;;;;20.94;42.39;99741.07;1719969;83;21174;-82
2022/09/11 10:24:39;;;;;;;8.73;2.55;;;;;;;21.13;42.00;99738.25;1720466;83;21892;-82
2022/09/11 10:27:24;;;;;;;7.12;2.67;;;;;;;21.11;42.26;99740.44;1725085;83;21211;-82
2022/09/11 10:30:37;;;;;;;11.83;2.47;;;;;;;21.30;42.31;99747.89;1729906;83;21172;-82
2022/09/11 10:33:30;;;;;;;4.97;2.15;;;;;;;21.53;41.69;99748.73;1729506;82;21156;-82
2022/09/11 10:36:30;;;;;;;15.23;2.47;;;;;;;21.71;41.19;99746.98;1728608;83;21743;-82
2022/09/11 10:39:38;;;;;;;8.70;2.00;;;;;;;21.75;40.85;99734.22;1729536;83;21231;-82
2022/09/11 10:42:45;;;;;;;9.88;2.20;;;;;;;21.71;40.23;99740.58;1729963;83;22078;-82
2022/09/11 10:46:10;;;;;;;6.95;2.08;;;;;;;21.81;40.82;99729.53;1709105;83;21306;-82
2022/09/11 10:49:25;;;;;;;7.95;2.42;;;;;;;21.96;40.64;99721.31;1729503;82;21247;-82
2022/09/11 10:52:32;;;;;;;9.40;3.17;;;;;;;21.96;39.78;99710.17;1728334;83;21821;-83
2022/09/11 10:55:43;;;;;;;10.03;2.98;;;;;;;22.10;39.40;99700.27;1729444;83;21187;-83
2022/09/11 10:58:49;;;;;;;7.10;3.30;;;;;;;22.30;39.32;99689.01;1729959;83;21172;-82
2022/09/11 11:01:55;;;;;;;7.28;3.30;;;;;;;22.25;39.18;99687.59;1729832;83;21579;-82
2022/09/11 11:05:02;;;;;;;9.78;4.22;;;;;;;22.28;39.10;99707.40;1728955;83;21199;-83
2022/09/11 11:08:49;;;;;;;9.58;3.20;;;;;;;22.39;39.31;99711.08;1729692;83;21192;-82
2022/09/11 11:12:27;;;;;;;12.07;2.70;;;;;;;22.56;38.74;99725.69;1729567;83;21188;-82
2022/09/11 11:15:49;;;;;;;8.48;3.35;;;;;;;22.66;38.02;99739.68;1729848;83;21191;-82
2022/09/11 11:19:15;;;;;;;6.50;2.90;;;;;;;22.59;38.32;99732.13;1729880;83;21518;-83
2022/09/11 11:22:29;;;;;;;13.43;2.62;;;;;;;22.57;37.65;99715.38;1725166;82;21275;-82
2022/09/11 11:25:55;;;;;;;16.17;2.72;;;;;;;22.76;37.37;99712.42;1726552;83;21262;-82
2022/09/11 11:29:27;;;;;;;5.42;2.52;;;;;;;22.82;37.10;99718.85;1726597;83;21553;-82
2022/09/11 11:32:47;;;;;;;4.75;2.05;;;;;;;22.85;37.67;99712.74;1726591;83;21172;-82
2022/09/11 11:36:03;;;;;;;5.17;2.43;;;;;;;23.08;36.88;99716.50;1726157;83;21227;-83
2022/09/11 11:39:39;;;;;;;9.18;2.30;;;;;;;23.27;36.84;99708.48;1726860;83;21184;-83
2022/09/11 11:43:00;;;;;;;8.90;2.75;;;;;;;23.37;36.41;99710.45;1710468;83;21209;-82
2022/09/11 11:46:24;;;;;;;11.22;2.77;;;;;;;23.52;36.28;99713.83;1781825;79;21745;-77
2022/09/11 11:49:42;;;;;;;5.92;2.77;;;;;;;23.54;36.17;99702.69;1767707;80;21188;-76
2022/09/11 11:53:23;;;;;;;6.83;2.70;;;;;;;23.57;36.28;99706.86;1751665;82;21541;-77
2022/09/11 11:56:54;;;;;;;10.03;2.90;;;;;;;23.56;35.70;99699.61;1751242;79;21180;-77
2022/09/11 12:00:15;;;;;;;16.95;3.40;;;;;;;23.58;35.64;99689.02;1744232;82;21191;-77
2022/09/11 12:03:36;;;;;;;6.78;3.52;;;;;;;23.67;35.40;99695.20;1743058;82;21549;-77
2022/09/11 12:06:42;;;;;;;14.10;3.72;;;;;;;23.61;35.73;99701.84;1702157;81;21203;-77
2022/09/11 12:09:52;;;;;;;7.37;3.50;;;;;;;23.64;35.31;99685.98;1744875;82;21336;-77
2022/09/11 12:13:01;;;;;;;10.48;3.92;;;;;;;23.81;35.34;99682.09;1729335;82;21156;-77
2022/09/11 12:16:33;;;;;;;8.80;3.25;;;;;;;23.80;34.95;99678.44;1751910;82;21204;-77
2022/09/11 12:19:38;;;;;;;8.98;3.52;;;;;;;23.85;34.47;99676.20;1751917;80;21208;-77
2022/09/11 12:22:51;;;;;;;13.55;4.10;;;;;;;23.88;34.22;99675.66;1751913;82;21160;-77
2022/09/11 12:25:57;;;;;;;11.53;3.58;;;;;;;23.91;34.65;99666.73;1751817;82;21156;-77
2022/09/11 12:29:23;;;;;;;9.10;3.52;;;;;;;23.99;34.27;99666.15;1751523;80;21216;-77
2022/09/11 12:32:33;;;;;;;16.07;3.60;;;;;;;24.08;33.91;99666.43;1752026;82;21698;-77
2022/09/11 12:35:52;;;;;;;18.40;4.28;;;;;;;24.01;33.49;99656.95;1752063;80;21204;-77
2022/09/11 12:39:04;;;;;;;16.52;3.90;;;;;;;24.10;33.56;99645.48;1751908;80;21769;-77
2022/09/11 12:42:33;;;;;;;12.03;3.62;;;;;;;24.21;33.22;99640.14;1749289;82;21191;-77
2022/09/11 12:45:43;;;;;;;13.88;3.87;;;;;;;24.23;33.08;99639.33;1713030;81;21208;-77
2022/09/11 12:48:50;;;;;;;18.60;4.20;;;;;;;24.49;32.62;99643.47;1714142;83;21189;-76
2022/09/11 12:52:06;;;;;;;8.65;4.42;;;;;;;24.64;32.50;99639.78;1684745;85;21187;-76
2022/09/11 12:55:16;;;;;;;16.25;3.92;;;;;;;24.81;32.54;99638.05;1714128;83;21224;-76
2022/09/11 12:58:32;;;;;;;9.13;3.50;;;;;;;24.98;32.20;99638.50;1685586;85;21171;-76
2022/09/11 13:01:39;;;;;;;12.07;3.92;;;;;;;24.94;31.27;99644.42;1713673;83;21204;-76
2022/09/11 13:04:45;;;;;;;16.02;3.37;;;;;;;24.82;31.54;99622.37;1685213;85;21251;-76
2022/09/11 13:07:52;;;;;;;14.58;3.42;;;;;;;24.86;31.63;99619.84;1714202;83;21212;-77
2022/09/11 13:10:58;;;;;;;8.38;3.52;;;;;;;24.92;31.26;99618.68;1685300;85;21187;-76
2022/09/11 13:14:05;;;;;;;6.55;3.00;;;;;;;24.92;31.09;99622.31;1721784;83;21223;-76
2022/09/11 13:17:10;;;;;;;9.55;2.72;;;;;;;24.79;31.42;99627.13;1692966;84;21191;-77
2022/09/11 13:20:28;;;;;;;17.75;3.58;;;;;;;24.66;31.34;99617.42;1699871;83;21289;-77
2022/09/11 13:23:34;;;;;;;12.70;3.40;;;;;;;24.59;31.49;99607.08;1692901;84;21210;-77
2022/09/11 13:26:40;;;;;;;8.70;2.50;;;;;;;24.49;32.12;99604.33;1721741;83;21788;-77
2022/09/11 13:29:46;;;;;;;10.68;3.40;;;;;;;24.44;32.23;99609.38;1691694;84;21211;-76
2022/09/11 13:32:52;;;;;;;14.18;3.33;;;;;;;24.46;32.00;99599.30;1699630;83;21196;-76
2022/09/11 13:35:58;;;;;;;13.72;3.77;;;;;;;24.52;32.19;99601.55;1692455;84;21238;-76
2022/09/11 13:39:06;;;;;;;11.70;4.42;;;;;;;24.38;32.06;99608.30;1720271;83;21825;-76
2022/09/11 13:42:15;;;;;;;11.28;3.30;;;;;;;24.13;32.51;99604.39;1692889;84;21196;-76
2022/09/11 13:45:27;;;;;;;11.85;3.05;;;;;;;24.12;32.92;99599.94;1682752;83;21748;-77
2022/09/11 13:48:33;;;;;;;12.98;3.42;;;;;;;24.15;32.72;99604.97;1737695;81;21193;-76
2022/09/11 13:51:38;;;;;;;7.15;3.17;;;;;;;24.19;33.02;99597.70;1716747;83;21188;-76
2022/09/11 13:54:50;;;;;;;11.35;4.22;;;;;;;24.19;33.47;99597.70;1700950;83;21853;-76
2022/09/11 13:58:02;;;;;;;8.65;3.20;;;;;;;24.34;33.76;99598.21;1715960;83;21184;-77
2022/09/11 14:01:18;;;;;;;10.88;3.05;;;;;;;24.34;34.57;99599.61;1715168;83;21220;-76
2022/09/11 14:04:26;;;;;;;10.55;3.52;;;;;;;24.44;35.51;99597.37;1715220;82;21221;-76
2022/09/11 14:07:32;;;;;;;6.53;3.10;;;;;;;24.55;35.79;99600.95;1715782;83;21233;-77
2022/09/11 14:10:51;;;;;;;12.63;2.62;;;;;;;24.43;36.00;99613.87;1716891;83;21189;-76
2022/09/11 14:14:04;;;;;;;14.35;3.25;;;;;;;24.33;36.12;99615.27;1716464;83;21219;-76
2022/09/11 14:17:12;;;;;;;10.63;3.15;;;;;;;24.39;36.07;99614.16;1736059;82;21739;-76
2022/09/11 14:20:25;;;;;;;9.58;3.00;;;;;;;24.22;36.22;99613.88;1735804;82;21201;-77
2022/09/11 14:23:33;;;;;;;10.88;2.70;;;;;;;24.20;36.35;99609.14;1736133;82;21149;-76
2022/09/11 14:26:43;;;;;;;12.98;3.95;;;;;;;24.31;36.08;99620.28;1736072;82;21710;-76
2022/09/11 14:29:47;;;;;;;;;;;;;;;24.07;35.79;99612.52;1737847;82;21193;-76
2022/09/11 14:32:53;;;;;;;19.10;3.25;;;;;;;24.01;35.23;99617.84;1720176;82;20213;-77
2022/09/11 14:36:01;;;;;;;14.07;3.35;;;;;;;24.03;35.29;99611.41;1736118;82;21178;-76
2022/09/11 14:39:06;;;;;;;11.78;3.35;;;;;;;23.80;35.12;99614.78;1735872;82;21205;-76
2022/09/11 14:42:15;;;;;;;10.32;3.40;;;;;;;23.68;35.16;99616.48;1736110;82;21153;-76
2022/09/11 14:45:30;;;;;;;5.37;2.62;;;;;;;23.65;35.37;99600.27;1735074;82;21985;-76
2022/09/11 14:48:35;;;;;;;4.22;2.83;;;;;;;23.61;35.61;99601.36;1735623;82;21194;-77
2022/09/11 14:51:43;;;;;;;10.48;2.90;;;;;;;23.42;36.38;99591.30;1736183;82;21221;-77